sensor_id;sensor_type;location;lat;lon;timestamp;P1;durP1;ratioP1;P2;durP2;ratioP2
75437;SDS011;64015;49.392;15.582;2023-04-24T00:01:29;13.00;;;7.82;;
75437;SDS011;64015;49.392;15.582;2023-04-24T00:03:56;11.45;;;6.85;;
75437;SDS011;64015;49.392;15.582;2023-04-24T00:06:25;12.55;;;8.23;;
75437;SDS011;64015;49.392;15.582;2023-04-24T00:11:24;10.23;;;6.85;;
75437;SDS011;64015;49.392;15.582;2023-04-24T00:13:50;10.95;;;6.68;;
75437;SDS011;64015;49.392;15.582;2023-04-24T00:16:16;11.02;;;6.47;;
75437;SDS011;64015;49.392;15.582;2023-04-24T00:18:41;12.50;;;7.35;;
75437;SDS011;64015;49.392;15.582;2023-04-24T00:21:07;13.25;;;7.88;;
75437;SDS011;64015;49.392;15.582;2023-04-24T00:23:32;10.32;;;6.57;;
75437;SDS011;64015;49.392;15.582;2023-04-24T00:25:58;14.05;;;7.82;;
75437;SDS011;64015;49.392;15.582;2023-04-24T00:28:24;13.15;;;8.05;;
75437;SDS011;64015;49.392;15.582;2023-04-24T00:30:49;10.57;;;6.40;;
75437;SDS011;64015;49.392;15.582;2023-04-24T00:33:15;10.88;;;7.57;;
75437;SDS011;64015;49.392;15.582;2023-04-24T00:35:41;9.85;;;6.63;;
75437;SDS011;64015;49.392;15.582;2023-04-24T00:38:06;11.45;;;7.60;;
75437;SDS011;64015;49.392;15.582;2023-04-24T00:40:32;10.27;;;6.43;;
75437;SDS011;64015;49.392;15.582;2023-04-24T00:42:58;9.10;;;6.32;;
75437;SDS011;64015;49.392;15.582;2023-04-24T00:45:24;11.60;;;6.85;;
75437;SDS011;64015;49.392;15.582;2023-04-24T00:47:49;9.52;;;5.97;;
75437;SDS011;64015;49.392;15.582;2023-04-24T00:50:17;11.80;;;6.93;;
75437;SDS011;64015;49.392;15.582;2023-04-24T00:52:43;11.45;;;7.07;;
75437;SDS011;64015;49.392;15.582;2023-04-24T00:55:11;10.85;;;7.05;;
75437;SDS011;64015;49.392;15.582;2023-04-24T00:57:37;12.93;;;7.85;;
75437;SDS011;64015;49.392;15.582;2023-04-24T01:00:04;15.82;;;8.80;;
75437;SDS011;64015;49.392;15.582;2023-04-24T01:02:37;13.15;;;8.35;;
75437;SDS011;64015;49.392;15.582;2023-04-24T01:05:06;12.43;;;7.43;;
75437;SDS011;64015;49.392;15.582;2023-04-24T01:07:35;10.50;;;7.38;;
75437;SDS011;64015;49.392;15.582;2023-04-24T01:12:28;8.57;;;5.60;;
75437;SDS011;64015;49.392;15.582;2023-04-24T01:14:54;9.85;;;5.93;;
75437;SDS011;64015;49.392;15.582;2023-04-24T01:19:50;11.70;;;6.88;;
75437;SDS011;64015;49.392;15.582;2023-04-24T01:22:35;11.98;;;5.82;;
75437;SDS011;64015;49.392;15.582;2023-04-24T01:25:02;11.82;;;6.72;;
75437;SDS011;64015;49.392;15.582;2023-04-24T01:27:28;13.48;;;9.02;;
75437;SDS011;64015;49.392;15.582;2023-04-24T01:29:54;14.95;;;9.52;;
75437;SDS011;64015;49.392;15.582;2023-04-24T01:32:20;16.58;;;8.80;;
75437;SDS011;64015;49.392;15.582;2023-04-24T01:34:46;11.57;;;7.22;;
75437;SDS011;64015;49.392;15.582;2023-04-24T01:37:12;11.80;;;7.88;;
75437;SDS011;64015;49.392;15.582;2023-04-24T01:39:38;11.25;;;6.47;;
75437;SDS011;64015;49.392;15.582;2023-04-24T01:42:04;9.38;;;6.25;;
75437;SDS011;64015;49.392;15.582;2023-04-24T01:44:31;12.48;;;7.40;;
75437;SDS011;64015;49.392;15.582;2023-04-24T01:46:56;12.15;;;7.75;;
75437;SDS011;64015;49.392;15.582;2023-04-24T01:49:22;12.80;;;7.97;;
75437;SDS011;64015;49.392;15.582;2023-04-24T01:51:48;13.77;;;7.80;;
75437;SDS011;64015;49.392;15.582;2023-04-24T01:54:14;13.60;;;7.38;;
75437;SDS011;64015;49.392;15.582;2023-04-24T01:56:43;12.98;;;8.18;;
75437;SDS011;64015;49.392;15.582;2023-04-24T01:59:10;10.85;;;6.45;;
75437;SDS011;64015;49.392;15.582;2023-04-24T02:01:36;10.98;;;6.65;;
75437;SDS011;64015;49.392;15.582;2023-04-24T02:04:05;11.75;;;6.28;;
75437;SDS011;64015;49.392;15.582;2023-04-24T02:06:32;10.10;;;6.78;;
75437;SDS011;64015;49.392;15.582;2023-04-24T02:08:58;9.88;;;6.80;;
75437;SDS011;64015;49.392;15.582;2023-04-24T02:14:08;10.07;;;5.82;;
75437;SDS011;64015;49.392;15.582;2023-04-24T02:16:34;10.25;;;5.93;;
75437;SDS011;64015;49.392;15.582;2023-04-24T02:19:01;9.80;;;6.45;;
75437;SDS011;64015;49.392;15.582;2023-04-24T02:21:32;9.82;;;6.40;;
75437;SDS011;64015;49.392;15.582;2023-04-24T02:24:06;9.30;;;6.35;;
75437;SDS011;64015;49.392;15.582;2023-04-24T02:26:31;9.13;;;6.47;;
75437;SDS011;64015;49.392;15.582;2023-04-24T02:28:57;12.05;;;6.88;;
75437;SDS011;64015;49.392;15.582;2023-04-24T02:31:22;10.85;;;6.88;;
75437;SDS011;64015;49.392;15.582;2023-04-24T02:33:48;12.63;;;7.07;;
75437;SDS011;64015;49.392;15.582;2023-04-24T02:36:14;11.77;;;7.30;;
75437;SDS011;64015;49.392;15.582;2023-04-24T02:38:40;11.75;;;7.82;;
75437;SDS011;64015;49.392;15.582;2023-04-24T02:41:05;10.32;;;5.90;;
75437;SDS011;64015;49.392;15.582;2023-04-24T02:43:33;8.85;;;6.15;;
75437;SDS011;64015;49.392;15.582;2023-04-24T02:45:59;9.85;;;6.15;;
75437;SDS011;64015;49.392;15.582;2023-04-24T02:48:25;9.55;;;6.65;;
75437;SDS011;64015;49.392;15.582;2023-04-24T02:50:50;8.65;;;5.75;;
75437;SDS011;64015;49.392;15.582;2023-04-24T02:53:16;10.35;;;5.43;;
75437;SDS011;64015;49.392;15.582;2023-04-24T02:55:42;10.05;;;6.38;;
75437;SDS011;64015;49.392;15.582;2023-04-24T02:58:08;9.13;;;6.35;;
75437;SDS011;64015;49.392;15.582;2023-04-24T03:00:33;10.43;;;7.10;;
75437;SDS011;64015;49.392;15.582;2023-04-24T03:02:59;11.13;;;7.18;;
75437;SDS011;64015;49.392;15.582;2023-04-24T03:05:27;10.25;;;5.80;;
75437;SDS011;64015;49.392;15.582;2023-04-24T03:07:53;10.48;;;6.72;;
75437;SDS011;64015;49.392;15.582;2023-04-24T03:10:19;11.77;;;6.82;;
75437;SDS011;64015;49.392;15.582;2023-04-24T03:12:45;9.55;;;6.38;;
75437;SDS011;64015;49.392;15.582;2023-04-24T03:15:10;10.40;;;6.38;;
75437;SDS011;64015;49.392;15.582;2023-04-24T03:17:36;11.98;;;6.55;;
75437;SDS011;64015;49.392;15.582;2023-04-24T03:20:02;11.68;;;6.70;;
75437;SDS011;64015;49.392;15.582;2023-04-24T03:22:30;9.23;;;5.63;;
75437;SDS011;64015;49.392;15.582;2023-04-24T03:24:57;12.40;;;7.20;;
75437;SDS011;64015;49.392;15.582;2023-04-24T03:27:23;11.15;;;6.75;;
75437;SDS011;64015;49.392;15.582;2023-04-24T03:29:49;11.43;;;7.20;;
75437;SDS011;64015;49.392;15.582;2023-04-24T03:32:19;12.18;;;7.90;;
75437;SDS011;64015;49.392;15.582;2023-04-24T03:34:44;12.48;;;8.00;;
75437;SDS011;64015;49.392;15.582;2023-04-24T03:37:10;11.70;;;7.80;;
75437;SDS011;64015;49.392;15.582;2023-04-24T03:39:36;12.40;;;8.25;;
75437;SDS011;64015;49.392;15.582;2023-04-24T03:42:01;12.18;;;7.65;;
75437;SDS011;64015;49.392;15.582;2023-04-24T03:44:27;12.60;;;7.85;;
75437;SDS011;64015;49.392;15.582;2023-04-24T03:46:53;11.35;;;8.10;;
75437;SDS011;64015;49.392;15.582;2023-04-24T03:49:19;11.48;;;7.25;;
75437;SDS011;64015;49.392;15.582;2023-04-24T03:51:45;11.77;;;7.35;;
75437;SDS011;64015;49.392;15.582;2023-04-24T03:54:11;12.00;;;7.57;;
75437;SDS011;64015;49.392;15.582;2023-04-24T03:56:37;15.32;;;8.10;;
75437;SDS011;64015;49.392;15.582;2023-04-24T03:59:02;12.73;;;8.63;;
75437;SDS011;64015;49.392;15.582;2023-04-24T04:01:28;16.13;;;8.77;;
75437;SDS011;64015;49.392;15.582;2023-04-24T04:03:54;12.10;;;8.98;;
75437;SDS011;64015;49.392;15.582;2023-04-24T04:06:20;16.40;;;9.45;;
75437;SDS011;64015;49.392;15.582;2023-04-24T04:08:46;16.27;;;8.82;;
75437;SDS011;64015;49.392;15.582;2023-04-24T04:11:12;14.05;;;8.15;;
75437;SDS011;64015;49.392;15.582;2023-04-24T04:13:38;17.30;;;10.57;;
75437;SDS011;64015;49.392;15.582;2023-04-24T04:16:04;13.77;;;9.32;;
75437;SDS011;64015;49.392;15.582;2023-04-24T04:18:29;14.65;;;9.35;;
75437;SDS011;64015;49.392;15.582;2023-04-24T04:20:55;17.33;;;9.93;;
75437;SDS011;64015;49.392;15.582;2023-04-24T04:23:44;12.93;;;9.77;;
75437;SDS011;64015;49.392;15.582;2023-04-24T04:26:34;16.02;;;9.45;;
75437;SDS011;64015;49.392;15.582;2023-04-24T04:31:47;12.55;;;8.52;;
75437;SDS011;64015;49.392;15.582;2023-04-24T04:34:13;12.85;;;8.32;;
75437;SDS011;64015;49.392;15.582;2023-04-24T04:36:45;12.82;;;8.85;;
75437;SDS011;64015;49.392;15.582;2023-04-24T04:39:14;12.82;;;8.25;;
75437;SDS011;64015;49.392;15.582;2023-04-24T04:41:41;15.93;;;8.35;;
75437;SDS011;64015;49.392;15.582;2023-04-24T04:44:07;13.85;;;8.38;;
75437;SDS011;64015;49.392;15.582;2023-04-24T04:46:34;15.25;;;8.75;;
75437;SDS011;64015;49.392;15.582;2023-04-24T04:49:01;13.32;;;8.55;;
75437;SDS011;64015;49.392;15.582;2023-04-24T04:51:28;14.85;;;8.73;;
75437;SDS011;64015;49.392;15.582;2023-04-24T04:53:54;13.57;;;8.68;;
75437;SDS011;64015;49.392;15.582;2023-04-24T04:56:19;11.60;;;7.10;;
75437;SDS011;64015;49.392;15.582;2023-04-24T04:58:46;13.95;;;8.88;;
75437;SDS011;64015;49.392;15.582;2023-04-24T05:01:11;12.82;;;8.75;;
75437;SDS011;64015;49.392;15.582;2023-04-24T05:03:37;13.63;;;9.07;;
75437;SDS011;64015;49.392;15.582;2023-04-24T05:06:03;12.88;;;8.13;;
75437;SDS011;64015;49.392;15.582;2023-04-24T05:08:29;12.93;;;8.13;;
75437;SDS011;64015;49.392;15.582;2023-04-24T05:10:55;12.32;;;8.93;;
75437;SDS011;64015;49.392;15.582;2023-04-24T05:13:21;11.85;;;7.68;;
75437;SDS011;64015;49.392;15.582;2023-04-24T05:15:46;13.05;;;8.07;;
75437;SDS011;64015;49.392;15.582;2023-04-24T05:18:12;15.50;;;8.60;;
75437;SDS011;64015;49.392;15.582;2023-04-24T05:20:38;13.30;;;7.85;;
75437;SDS011;64015;49.392;15.582;2023-04-24T05:23:04;12.88;;;8.10;;
75437;SDS011;64015;49.392;15.582;2023-04-24T05:25:29;12.50;;;7.70;;
75437;SDS011;64015;49.392;15.582;2023-04-24T05:27:57;13.32;;;8.07;;
75437;SDS011;64015;49.392;15.582;2023-04-24T05:30:23;13.73;;;8.80;;
75437;SDS011;64015;49.392;15.582;2023-04-24T05:32:49;12.02;;;7.65;;
75437;SDS011;64015;49.392;15.582;2023-04-24T05:35:14;11.43;;;7.85;;
75437;SDS011;64015;49.392;15.582;2023-04-24T05:37:42;14.95;;;8.85;;
75437;SDS011;64015;49.392;15.582;2023-04-24T05:40:08;12.77;;;8.15;;
75437;SDS011;64015;49.392;15.582;2023-04-24T05:42:34;14.50;;;9.75;;
75437;SDS011;64015;49.392;15.582;2023-04-24T05:45:00;15.40;;;10.50;;
75437;SDS011;64015;49.392;15.582;2023-04-24T05:47:26;9.15;;;6.32;;
75437;SDS011;64015;49.392;15.582;2023-04-24T05:49:51;9.25;;;6.65;;
75437;SDS011;64015;49.392;15.582;2023-04-24T05:52:18;9.30;;;6.22;;
75437;SDS011;64015;49.392;15.582;2023-04-24T05:54:44;9.05;;;6.80;;
75437;SDS011;64015;49.392;15.582;2023-04-24T05:57:10;9.68;;;6.65;;
75437;SDS011;64015;49.392;15.582;2023-04-24T05:59:36;10.07;;;6.55;;
75437;SDS011;64015;49.392;15.582;2023-04-24T06:02:06;10.38;;;6.28;;
75437;SDS011;64015;49.392;15.582;2023-04-24T06:04:32;9.95;;;5.68;;
75437;SDS011;64015;49.392;15.582;2023-04-24T06:06:59;9.55;;;5.03;;
75437;SDS011;64015;49.392;15.582;2023-04-24T06:09:31;8.20;;;5.43;;
75437;SDS011;64015;49.392;15.582;2023-04-24T06:11:56;9.90;;;4.85;;
75437;SDS011;64015;49.392;15.582;2023-04-24T06:14:23;7.15;;;4.90;;
75437;SDS011;64015;49.392;15.582;2023-04-24T06:16:49;8.18;;;4.82;;
75437;SDS011;64015;49.392;15.582;2023-04-24T06:19:14;8.02;;;4.60;;
75437;SDS011;64015;49.392;15.582;2023-04-24T06:21:40;6.82;;;4.40;;
75437;SDS011;64015;49.392;15.582;2023-04-24T06:24:06;7.90;;;4.35;;
75437;SDS011;64015;49.392;15.582;2023-04-24T06:26:32;8.45;;;4.53;;
75437;SDS011;64015;49.392;15.582;2023-04-24T06:28:57;6.40;;;3.80;;
75437;SDS011;64015;49.392;15.582;2023-04-24T06:31:24;6.75;;;4.65;;
75437;SDS011;64015;49.392;15.582;2023-04-24T06:33:50;6.00;;;4.40;;
75437;SDS011;64015;49.392;15.582;2023-04-24T06:36:16;6.13;;;4.05;;
75437;SDS011;64015;49.392;15.582;2023-04-24T06:38:42;6.75;;;3.88;;
75437;SDS011;64015;49.392;15.582;2023-04-24T06:41:08;7.43;;;4.00;;
75437;SDS011;64015;49.392;15.582;2023-04-24T06:43:34;6.85;;;4.22;;
75437;SDS011;64015;49.392;15.582;2023-04-24T06:46:00;5.75;;;3.53;;
75437;SDS011;64015;49.392;15.582;2023-04-24T06:48:27;4.22;;;2.40;;
75437;SDS011;64015;49.392;15.582;2023-04-24T06:50:53;4.22;;;2.53;;
75437;SDS011;64015;49.392;15.582;2023-04-24T06:53:18;6.85;;;3.28;;
75437;SDS011;64015;49.392;15.582;2023-04-24T06:55:44;5.53;;;2.83;;
75437;SDS011;64015;49.392;15.582;2023-04-24T06:58:11;3.88;;;2.58;;
75437;SDS011;64015;49.392;15.582;2023-04-24T07:00:37;4.97;;;2.33;;
75437;SDS011;64015;49.392;15.582;2023-04-24T07:03:03;4.50;;;2.60;;
75437;SDS011;64015;49.392;15.582;2023-04-24T07:05:30;4.47;;;2.15;;
75437;SDS011;64015;49.392;15.582;2023-04-24T07:07:59;5.25;;;2.75;;
75437;SDS011;64015;49.392;15.582;2023-04-24T07:10:28;3.67;;;2.38;;
75437;SDS011;64015;49.392;15.582;2023-04-24T07:12:54;3.97;;;2.50;;
75437;SDS011;64015;49.392;15.582;2023-04-24T07:15:32;6.95;;;3.63;;
75437;SDS011;64015;49.392;15.582;2023-04-24T07:17:57;4.22;;;2.83;;
75437;SDS011;64015;49.392;15.582;2023-04-24T07:20:23;4.38;;;2.38;;
75437;SDS011;64015;49.392;15.582;2023-04-24T07:22:49;3.35;;;2.28;;
75437;SDS011;64015;49.392;15.582;2023-04-24T07:25:14;4.28;;;1.90;;
75437;SDS011;64015;49.392;15.582;2023-04-24T07:27:40;3.85;;;1.95;;
75437;SDS011;64015;49.392;15.582;2023-04-24T07:30:06;5.40;;;2.30;;
75437;SDS011;64015;49.392;15.582;2023-04-24T07:32:32;4.53;;;2.55;;
75437;SDS011;64015;49.392;15.582;2023-04-24T07:34:58;5.32;;;2.20;;
75437;SDS011;64015;49.392;15.582;2023-04-24T07:37:24;4.90;;;2.40;;
75437;SDS011;64015;49.392;15.582;2023-04-24T07:39:50;4.13;;;2.10;;
75437;SDS011;64015;49.392;15.582;2023-04-24T07:42:15;6.65;;;2.70;;
75437;SDS011;64015;49.392;15.582;2023-04-24T07:44:41;3.97;;;2.30;;
75437;SDS011;64015;49.392;15.582;2023-04-24T07:47:07;3.65;;;2.15;;
75437;SDS011;64015;49.392;15.582;2023-04-24T07:49:33;4.75;;;2.55;;
75437;SDS011;64015;49.392;15.582;2023-04-24T07:52:00;3.13;;;2.20;;
75437;SDS011;64015;49.392;15.582;2023-04-24T07:54:28;3.28;;;1.90;;
75437;SDS011;64015;49.392;15.582;2023-04-24T07:56:54;3.85;;;2.00;;
75437;SDS011;64015;49.392;15.582;2023-04-24T07:59:19;3.97;;;2.35;;
75437;SDS011;64015;49.392;15.582;2023-04-24T08:01:45;3.10;;;2.00;;
75437;SDS011;64015;49.392;15.582;2023-04-24T08:04:11;3.40;;;2.13;;
75437;SDS011;64015;49.392;15.582;2023-04-24T08:06:36;3.08;;;1.88;;
75437;SDS011;64015;49.392;15.582;2023-04-24T08:09:02;2.90;;;1.92;;
75437;SDS011;64015;49.392;15.582;2023-04-24T08:11:28;3.83;;;2.25;;
75437;SDS011;64015;49.392;15.582;2023-04-24T08:13:54;4.30;;;1.83;;
75437;SDS011;64015;49.392;15.582;2023-04-24T08:16:20;5.00;;;2.33;;
75437;SDS011;64015;49.392;15.582;2023-04-24T08:18:49;3.28;;;1.75;;
75437;SDS011;64015;49.392;15.582;2023-04-24T08:21:15;5.57;;;2.17;;
75437;SDS011;64015;49.392;15.582;2023-04-24T08:23:42;2.80;;;2.00;;
75437;SDS011;64015;49.392;15.582;2023-04-24T08:26:08;4.70;;;2.38;;
75437;SDS011;64015;49.392;15.582;2023-04-24T08:28:34;3.08;;;2.38;;
75437;SDS011;64015;49.392;15.582;2023-04-24T08:31:00;3.80;;;2.33;;
75437;SDS011;64015;49.392;15.582;2023-04-24T08:33:27;4.47;;;2.08;;
75437;SDS011;64015;49.392;15.582;2023-04-24T08:35:57;2.92;;;2.10;;
75437;SDS011;64015;49.392;15.582;2023-04-24T08:38:25;3.20;;;2.10;;
75437;SDS011;64015;49.392;15.582;2023-04-24T08:40:51;2.97;;;2.10;;
75437;SDS011;64015;49.392;15.582;2023-04-24T08:43:18;2.90;;;2.15;;
75437;SDS011;64015;49.392;15.582;2023-04-24T08:45:46;3.75;;;2.17;;
75437;SDS011;64015;49.392;15.582;2023-04-24T08:48:12;3.70;;;2.47;;
75437;SDS011;64015;49.392;15.582;2023-04-24T08:50:38;3.65;;;2.15;;
75437;SDS011;64015;49.392;15.582;2023-04-24T08:53:08;4.18;;;2.33;;
75437;SDS011;64015;49.392;15.582;2023-04-24T08:55:34;4.55;;;3.20;;
75437;SDS011;64015;49.392;15.582;2023-04-24T08:58:01;3.50;;;2.10;;
75437;SDS011;64015;49.392;15.582;2023-04-24T09:00:28;2.85;;;1.77;;
75437;SDS011;64015;49.392;15.582;2023-04-24T09:02:54;2.97;;;2.30;;
75437;SDS011;64015;49.392;15.582;2023-04-24T09:05:21;3.22;;;2.17;;
75437;SDS011;64015;49.392;15.582;2023-04-24T09:07:49;3.05;;;1.73;;
75437;SDS011;64015;49.392;15.582;2023-04-24T09:10:22;2.85;;;1.80;;
75437;SDS011;64015;49.392;15.582;2023-04-24T09:12:52;2.45;;;1.27;;
75437;SDS011;64015;49.392;15.582;2023-04-24T09:15:20;1.85;;;1.05;;
75437;SDS011;64015;49.392;15.582;2023-04-24T09:17:46;1.80;;;1.05;;
75437;SDS011;64015;49.392;15.582;2023-04-24T09:20:12;2.00;;;1.23;;
75437;SDS011;64015;49.392;15.582;2023-04-24T09:22:38;2.88;;;1.17;;
75437;SDS011;64015;49.392;15.582;2023-04-24T09:25:12;2.70;;;1.10;;
75437;SDS011;64015;49.392;15.582;2023-04-24T09:27:44;4.13;;;1.38;;
75437;SDS011;64015;49.392;15.582;2023-04-24T09:30:10;2.20;;;1.23;;
75437;SDS011;64015;49.392;15.582;2023-04-24T09:32:36;4.13;;;1.33;;
75437;SDS011;64015;49.392;15.582;2023-04-24T09:37:36;4.40;;;2.78;;
75437;SDS011;64015;49.392;15.582;2023-04-24T09:42:38;5.03;;;1.50;;
75437;SDS011;64015;49.392;15.582;2023-04-24T09:45:08;3.92;;;1.60;;
75437;SDS011;64015;49.392;15.582;2023-04-24T09:47:38;2.25;;;1.20;;
75437;SDS011;64015;49.392;15.582;2023-04-24T09:50:10;4.20;;;1.30;;
75437;SDS011;64015;49.392;15.582;2023-04-24T09:52:40;2.72;;;1.27;;
75437;SDS011;64015;49.392;15.582;2023-04-24T09:55:11;3.35;;;1.40;;
75437;SDS011;64015;49.392;15.582;2023-04-24T09:57:49;2.30;;;1.10;;
75437;SDS011;64015;49.392;15.582;2023-04-24T10:05:40;3.17;;;1.00;;
75437;SDS011;64015;49.392;15.582;2023-04-24T10:08:07;1.98;;;1.13;;
75437;SDS011;64015;49.392;15.582;2023-04-24T10:10:37;2.10;;;0.90;;
75437;SDS011;64015;49.392;15.582;2023-04-24T10:13:04;2.83;;;1.02;;
75437;SDS011;64015;49.392;15.582;2023-04-24T10:15:32;2.25;;;0.75;;
75437;SDS011;64015;49.392;15.582;2023-04-24T10:17:59;2.60;;;1.13;;
75437;SDS011;64015;49.392;15.582;2023-04-24T10:20:25;2.55;;;1.05;;
75437;SDS011;64015;49.392;15.582;2023-04-24T10:22:56;2.75;;;1.10;;
75437;SDS011;64015;49.392;15.582;2023-04-24T10:25:23;2.47;;;1.00;;
75437;SDS011;64015;49.392;15.582;2023-04-24T10:27:51;2.85;;;1.02;;
75437;SDS011;64015;49.392;15.582;2023-04-24T10:30:18;3.13;;;1.38;;
75437;SDS011;64015;49.392;15.582;2023-04-24T10:35:14;4.47;;;1.40;;
75437;SDS011;64015;49.392;15.582;2023-04-24T10:37:46;2.38;;;0.75;;
75437;SDS011;64015;49.392;15.582;2023-04-24T10:40:19;3.83;;;1.00;;
75437;SDS011;64015;49.392;15.582;2023-04-24T10:42:58;3.03;;;1.40;;
75437;SDS011;64015;49.392;15.582;2023-04-24T10:45:27;2.45;;;1.17;;
75437;SDS011;64015;49.392;15.582;2023-04-24T10:48:00;2.58;;;0.90;;
75437;SDS011;64015;49.392;15.582;2023-04-24T10:50:28;2.35;;;1.25;;
75437;SDS011;64015;49.392;15.582;2023-04-24T10:53:05;1.70;;;0.90;;
75437;SDS011;64015;49.392;15.582;2023-04-24T10:55:48;2.35;;;1.10;;
75437;SDS011;64015;49.392;15.582;2023-04-24T10:58:22;4.15;;;1.48;;
75437;SDS011;64015;49.392;15.582;2023-04-24T11:00:58;2.70;;;1.27;;
75437;SDS011;64015;49.392;15.582;2023-04-24T11:05:51;2.35;;;0.90;;
75437;SDS011;64015;49.392;15.582;2023-04-24T11:08:21;2.13;;;1.15;;
75437;SDS011;64015;49.392;15.582;2023-04-24T11:11:33;2.67;;;1.00;;
75437;SDS011;64015;49.392;15.582;2023-04-24T11:14:03;3.45;;;1.20;;
75437;SDS011;64015;49.392;15.582;2023-04-24T11:16:40;1.95;;;0.90;;
75437;SDS011;64015;49.392;15.582;2023-04-24T11:26:54;3.03;;;1.05;;
75437;SDS011;64015;49.392;15.582;2023-04-24T11:29:22;3.20;;;1.00;;
75437;SDS011;64015;49.392;15.582;2023-04-24T11:32:14;1.77;;;0.60;;
75437;SDS011;64015;49.392;15.582;2023-04-24T11:35:19;2.85;;;0.98;;
75437;SDS011;64015;49.392;15.582;2023-04-24T11:37:50;1.75;;;0.63;;
75437;SDS011;64015;49.392;15.582;2023-04-24T11:40:21;2.90;;;1.30;;
75437;SDS011;64015;49.392;15.582;2023-04-24T11:42:49;1.58;;;1.10;;
75437;SDS011;64015;49.392;15.582;2023-04-24T11:45:17;2.08;;;1.00;;
75437;SDS011;64015;49.392;15.582;2023-04-24T11:47:44;2.75;;;0.80;;
75437;SDS011;64015;49.392;15.582;2023-04-24T11:50:12;1.67;;;0.70;;
75437;SDS011;64015;49.392;15.582;2023-04-24T11:52:42;1.70;;;0.80;;
75437;SDS011;64015;49.392;15.582;2023-04-24T11:57:44;1.90;;;1.02;;
75437;SDS011;64015;49.392;15.582;2023-04-24T12:00:15;4.85;;;1.30;;
75437;SDS011;64015;49.392;15.582;2023-04-24T12:02:45;2.10;;;1.10;;
75437;SDS011;64015;49.392;15.582;2023-04-24T12:05:24;3.55;;;1.30;;
75437;SDS011;64015;49.392;15.582;2023-04-24T12:07:51;2.95;;;1.77;;
75437;SDS011;64015;49.392;15.582;2023-04-24T12:10:21;4.22;;;1.80;;
75437;SDS011;64015;49.392;15.582;2023-04-24T12:12:48;3.80;;;1.48;;
75437;SDS011;64015;49.392;15.582;2023-04-24T12:15:15;3.15;;;0.95;;
75437;SDS011;64015;49.392;15.582;2023-04-24T12:17:41;5.35;;;3.08;;
75437;SDS011;64015;49.392;15.582;2023-04-24T12:20:08;2.00;;;1.20;;
75437;SDS011;64015;49.392;15.582;2023-04-24T12:25:17;2.53;;;1.65;;
75437;SDS011;64015;49.392;15.582;2023-04-24T12:27:44;2.83;;;1.42;;
75437;SDS011;64015;49.392;15.582;2023-04-24T12:30:14;2.70;;;1.15;;
75437;SDS011;64015;49.392;15.582;2023-04-24T12:32:41;2.28;;;1.45;;
75437;SDS011;64015;49.392;15.582;2023-04-24T12:37:45;2.70;;;0.98;;
75437;SDS011;64015;49.392;15.582;2023-04-24T12:40:11;1.80;;;1.13;;
75437;SDS011;64015;49.392;15.582;2023-04-24T12:45:11;2.75;;;1.08;;
75437;SDS011;64015;49.392;15.582;2023-04-24T12:47:38;2.22;;;1.17;;
75437;SDS011;64015;49.392;15.582;2023-04-24T12:50:05;4.25;;;1.20;;
75437;SDS011;64015;49.392;15.582;2023-04-24T12:56:32;2.00;;;1.15;;
75437;SDS011;64015;49.392;15.582;2023-04-24T12:58:58;1.98;;;1.00;;
75437;SDS011;64015;49.392;15.582;2023-04-24T13:01:23;2.70;;;0.90;;
75437;SDS011;64015;49.392;15.582;2023-04-24T13:03:49;1.92;;;1.10;;
75437;SDS011;64015;49.392;15.582;2023-04-24T13:06:15;2.10;;;1.20;;
75437;SDS011;64015;49.392;15.582;2023-04-24T13:08:41;2.25;;;0.98;;
75437;SDS011;64015;49.392;15.582;2023-04-24T13:11:06;5.30;;;1.48;;
75437;SDS011;64015;49.392;15.582;2023-04-24T13:13:32;2.15;;;1.30;;
75437;SDS011;64015;49.392;15.582;2023-04-24T13:15:58;2.00;;;1.10;;
75437;SDS011;64015;49.392;15.582;2023-04-24T13:18:24;2.53;;;0.80;;
75437;SDS011;64015;49.392;15.582;2023-04-24T13:20:49;1.75;;;0.95;;
75437;SDS011;64015;49.392;15.582;2023-04-24T13:23:15;1.60;;;0.80;;
75437;SDS011;64015;49.392;15.582;2023-04-24T13:25:41;1.42;;;0.80;;
75437;SDS011;64015;49.392;15.582;2023-04-24T13:28:07;2.50;;;1.13;;
75437;SDS011;64015;49.392;15.582;2023-04-24T13:30:34;2.08;;;1.00;;
75437;SDS011;64015;49.392;15.582;2023-04-24T13:33:00;1.30;;;0.73;;
75437;SDS011;64015;49.392;15.582;2023-04-24T13:35:26;3.67;;;1.40;;
75437;SDS011;64015;49.392;15.582;2023-04-24T13:37:52;3.55;;;2.28;;
75437;SDS011;64015;49.392;15.582;2023-04-24T13:40:17;2.00;;;1.33;;
75437;SDS011;64015;49.392;15.582;2023-04-24T13:42:43;2.30;;;1.27;;
75437;SDS011;64015;49.392;15.582;2023-04-24T13:45:09;2.35;;;1.00;;
75437;SDS011;64015;49.392;15.582;2023-04-24T13:47:35;3.97;;;1.10;;
75437;SDS011;64015;49.392;15.582;2023-04-24T13:50:01;4.38;;;1.00;;
75437;SDS011;64015;49.392;15.582;2023-04-24T13:52:27;2.30;;;1.00;;
75437;SDS011;64015;49.392;15.582;2023-04-24T13:54:53;3.10;;;1.05;;
75437;SDS011;64015;49.392;15.582;2023-04-24T13:57:19;1.92;;;0.80;;
75437;SDS011;64015;49.392;15.582;2023-04-24T13:59:44;1.58;;;0.70;;
75437;SDS011;64015;49.392;15.582;2023-04-24T14:02:10;1.27;;;0.60;;
75437;SDS011;64015;49.392;15.582;2023-04-24T14:04:36;1.27;;;0.70;;
75437;SDS011;64015;49.392;15.582;2023-04-24T14:07:02;1.30;;;0.60;;
75437;SDS011;64015;49.392;15.582;2023-04-24T14:09:27;1.13;;;0.63;;
75437;SDS011;64015;49.392;15.582;2023-04-24T14:11:53;1.50;;;0.85;;
75437;SDS011;64015;49.392;15.582;2023-04-24T14:14:19;1.70;;;0.90;;
75437;SDS011;64015;49.392;15.582;2023-04-24T14:16:45;2.33;;;0.90;;
75437;SDS011;64015;49.392;15.582;2023-04-24T14:19:11;3.35;;;0.70;;
75437;SDS011;64015;49.392;15.582;2023-04-24T14:21:37;2.47;;;1.00;;
75437;SDS011;64015;49.392;15.582;2023-04-24T14:24:02;2.90;;;1.00;;
75437;SDS011;64015;49.392;15.582;2023-04-24T14:26:28;2.78;;;0.90;;
75437;SDS011;64015;49.392;15.582;2023-04-24T14:28:54;3.35;;;1.13;;
75437;SDS011;64015;49.392;15.582;2023-04-24T14:31:20;3.30;;;1.02;;
75437;SDS011;64015;49.392;15.582;2023-04-24T14:33:46;2.50;;;1.10;;
75437;SDS011;64015;49.392;15.582;2023-04-24T14:36:12;3.17;;;1.25;;
75437;SDS011;64015;49.392;15.582;2023-04-24T14:38:37;3.05;;;1.40;;
75437;SDS011;64015;49.392;15.582;2023-04-24T14:41:03;2.55;;;1.23;;
75437;SDS011;64015;49.392;15.582;2023-04-24T14:43:34;2.83;;;1.30;;
75437;SDS011;64015;49.392;15.582;2023-04-24T14:46:06;2.75;;;1.20;;
75437;SDS011;64015;49.392;15.582;2023-04-24T14:48:53;1.90;;;0.95;;
75437;SDS011;64015;49.392;15.582;2023-04-24T14:51:55;3.47;;;1.75;;
75437;SDS011;64015;49.392;15.582;2023-04-24T14:54:29;4.40;;;2.00;;
75437;SDS011;64015;49.392;15.582;2023-04-24T14:59:52;3.08;;;1.50;;
75437;SDS011;64015;49.392;15.582;2023-04-24T15:02:21;2.85;;;1.40;;
75437;SDS011;64015;49.392;15.582;2023-04-24T15:05:03;5.00;;;1.63;;
75437;SDS011;64015;49.392;15.582;2023-04-24T15:12:55;3.20;;;1.40;;
75437;SDS011;64015;49.392;15.582;2023-04-24T15:15:20;2.80;;;1.40;;
75437;SDS011;64015;49.392;15.582;2023-04-24T15:24:52;4.68;;;1.67;;
75437;SDS011;64015;49.392;15.582;2023-04-24T15:27:54;3.65;;;1.80;;
75437;SDS011;64015;49.392;15.582;2023-04-24T15:32:49;2.17;;;0.95;;
75437;SDS011;64015;49.392;15.582;2023-04-24T15:35:21;2.38;;;1.33;;
75437;SDS011;64015;49.392;15.582;2023-04-24T15:37:46;2.45;;;1.33;;
75437;SDS011;64015;49.392;15.582;2023-04-24T15:40:12;3.03;;;1.38;;
75437;SDS011;64015;49.392;15.582;2023-04-24T15:42:41;2.65;;;1.33;;